sensor_id;sensor_type;location;lat;lon;timestamp;temperature;humidity
2869;DHT22;1442;47.448;8.582;2024-03-02T00:00:14;6.90;99.90
2869;DHT22;1442;47.448;8.582;2024-03-02T00:02:42;6.90;99.90
2869;DHT22;1442;47.448;8.582;2024-03-02T00:05:12;6.80;99.90
2869;DHT22;1442;47.448;8.582;2024-03-02T00:07:41;6.70;99.90
2869;DHT22;1442;47.448;8.582;2024-03-02T00:10:10;6.70;99.90
2869;DHT22;1442;47.448;8.582;2024-03-02T00:12:38;6.70;99.90
2869;DHT22;1442;47.448;8.582;2024-03-02T00:15:18;6.60;99.90
2869;DHT22;1442;47.448;8.582;2024-03-02T00:17:53;6.60;99.90
2869;DHT22;1442;47.448;8.582;2024-03-02T00:20:22;6.50;99.90
2869;DHT22;1442;47.448;8.582;2024-03-02T00:22:50;6.40;99.90
2869;DHT22;1442;47.448;8.582;2024-03-02T00:25:17;6.50;99.90
2869;DHT22;1442;47.448;8.582;2024-03-02T00:27:47;6.40;99.90
2869;DHT22;1442;47.448;8.582;2024-03-02T00:30:43;6.30;99.90
2869;DHT22;1442;47.448;8.582;2024-03-02T00:33:12;6.30;99.90
2869;DHT22;1442;47.448;8.582;2024-03-02T00:35:40;6.30;99.90
2869;DHT22;1442;47.448;8.582;2024-03-02T00:38:10;6.30;99.90
2869;DHT22;1442;47.448;8.582;2024-03-02T00:40:37;6.30;99.90
2869;DHT22;1442;47.448;8.582;2024-03-02T00:43:04;6.30;99.90
2869;DHT22;1442;47.448;8.582;2024-03-02T00:45:31;6.30;99.90
2869;DHT22;1442;47.448;8.582;2024-03-02T00:47:58;6.30;99.90
2869;DHT22;1442;47.448;8.582;2024-03-02T00:50:25;6.30;99.90
2869;DHT22;1442;47.448;8.582;2024-03-02T00:52:53;6.20;99.90
2869;DHT22;1442;47.448;8.582;2024-03-02T00:55:20;6.20;99.90
2869;DHT22;1442;47.448;8.582;2024-03-02T00:57:47;6.20;99.90
2869;DHT22;1442;47.448;8.582;2024-03-02T01:00:15;6.10;99.90
2869;DHT22;1442;47.448;8.582;2024-03-02T01:02:43;6.10;99.90
2869;DHT22;1442;47.448;8.582;2024-03-02T01:05:12;6.10;99.90
2869;DHT22;1442;47.448;8.582;2024-03-02T01:07:38;6.10;99.90
2869;DHT22;1442;47.448;8.582;2024-03-02T01:10:07;6.10;99.90
2869;DHT22;1442;47.448;8.582;2024-03-02T01:12:35;6.10;99.90
2869;DHT22;1442;47.448;8.582;2024-03-02T01:15:02;6.10;99.90
2869;DHT22;1442;47.448;8.582;2024-03-02T01:17:33;6.10;99.90
2869;DHT22;1442;47.448;8.582;2024-03-02T01:20:00;6.10;99.90
2869;DHT22;1442;47.448;8.582;2024-03-02T01:22:27;6.10;99.90
2869;DHT22;1442;47.448;8.582;2024-03-02T01:24:54;6.10;99.90
2869;DHT22;1442;47.448;8.582;2024-03-02T01:27:22;6.00;99.90
2869;DHT22;1442;47.448;8.582;2024-03-02T01:29:49;6.00;99.90
2869;DHT22;1442;47.448;8.582;2024-03-02T01:32:15;6.00;99.90
2869;DHT22;1442;47.448;8.582;2024-03-02T01:34:42;6.00;99.90
2869;DHT22;1442;47.448;8.582;2024-03-02T01:37:09;6.00;99.90
2869;DHT22;1442;47.448;8.582;2024-03-02T01:39:36;5.90;99.90
2869;DHT22;1442;47.448;8.582;2024-03-02T01:42:03;5.90;99.90
2869;DHT22;1442;47.448;8.582;2024-03-02T01:44:31;5.90;99.90
2869;DHT22;1442;47.448;8.582;2024-03-02T01:46:58;5.90;99.90
2869;DHT22;1442;47.448;8.582;2024-03-02T01:49:25;5.80;99.90
2869;DHT22;1442;47.448;8.582;2024-03-02T01:51:52;5.80;99.90
2869;DHT22;1442;47.448;8.582;2024-03-02T01:54:19;5.80;99.90
2869;DHT22;1442;47.448;8.582;2024-03-02T01:56:45;5.80;99.90
2869;DHT22;1442;47.448;8.582;2024-03-02T01:59:13;5.80;99.90
2869;DHT22;1442;47.448;8.582;2024-03-02T02:01:41;5.80;99.90
2869;DHT22;1442;47.448;8.582;2024-03-02T02:04:07;5.70;99.90
2869;DHT22;1442;47.448;8.582;2024-03-02T02:06:34;5.70;99.90
2869;DHT22;1442;47.448;8.582;2024-03-02T02:09:01;5.80;99.90
2869;DHT22;1442;47.448;8.582;2024-03-02T02:11:28;5.70;99.90
2869;DHT22;1442;47.448;8.582;2024-03-02T02:13:55;5.70;99.90
2869;DHT22;1442;47.448;8.582;2024-03-02T02:16:22;5.70;99.90
2869;DHT22;1442;47.448;8.582;2024-03-02T02:18:50;5.70;99.90
2869;DHT22;1442;47.448;8.582;2024-03-02T02:21:17;5.70;99.90
2869;DHT22;1442;47.448;8.582;2024-03-02T02:23:45;5.70;99.90
2869;DHT22;1442;47.448;8.582;2024-03-02T02:26:14;5.70;99.90
2869;DHT22;1442;47.448;8.582;2024-03-02T02:28:40;5.70;99.90
2869;DHT22;1442;47.448;8.582;2024-03-02T02:31:12;5.60;99.90
2869;DHT22;1442;47.448;8.582;2024-03-02T02:33:39;5.60;99.90
2869;DHT22;1442;47.448;8.582;2024-03-02T02:36:06;5.50;99.90
2869;DHT22;1442;47.448;8.582;2024-03-02T02:38:36;5.50;99.90
2869;DHT22;1442;47.448;8.582;2024-03-02T02:41:06;5.40;99.90
2869;DHT22;1442;47.448;8.582;2024-03-02T02:43:33;5.40;99.90
2869;DHT22;1442;47.448;8.582;2024-03-02T02:45:59;5.30;99.90
2869;DHT22;1442;47.448;8.582;2024-03-02T02:48:26;5.30;99.90
2869;DHT22;1442;47.448;8.582;2024-03-02T02:50:53;5.30;99.90
2869;DHT22;1442;47.448;8.582;2024-03-02T02:53:20;5.20;99.90
2869;DHT22;1442;47.448;8.582;2024-03-02T02:55:46;5.20;99.90
2869;DHT22;1442;47.448;8.582;2024-03-02T02:58:14;5.20;99.90
2869;DHT22;1442;47.448;8.582;2024-03-02T03:00:41;5.20;99.90
2869;DHT22;1442;47.448;8.582;2024-03-02T03:03:08;5.30;99.90
2869;DHT22;1442;47.448;8.582;2024-03-02T03:05:35;5.30;99.90
2869;DHT22;1442;47.448;8.582;2024-03-02T03:08:02;5.30;99.90
2869;DHT22;1442;47.448;8.582;2024-03-02T03:10:29;5.30;99.90
2869;DHT22;1442;47.448;8.582;2024-03-02T03:12:55;5.30;99.90
2869;DHT22;1442;47.448;8.582;2024-03-02T03:15:24;5.50;99.90
2869;DHT22;1442;47.448;8.582;2024-03-02T03:17:51;5.40;99.90
2869;DHT22;1442;47.448;8.582;2024-03-02T03:20:17;5.40;99.90
2869;DHT22;1442;47.448;8.582;2024-03-02T03:22:46;5.40;99.90
2869;DHT22;1442;47.448;8.582;2024-03-02T03:25:13;5.40;99.90
2869;DHT22;1442;47.448;8.582;2024-03-02T03:27:40;5.40;99.90
2869;DHT22;1442;47.448;8.582;2024-03-02T03:30:07;5.40;99.90
2869;DHT22;1442;47.448;8.582;2024-03-02T03:32:36;5.40;99.90
2869;DHT22;1442;47.448;8.582;2024-03-02T03:35:03;5.30;99.90
2869;DHT22;1442;47.448;8.582;2024-03-02T03:37:30;5.30;99.90
2869;DHT22;1442;47.448;8.582;2024-03-02T03:39:58;5.30;99.90
2869;DHT22;1442;47.448;8.582;2024-03-02T03:42:25;5.30;99.90
2869;DHT22;1442;47.448;8.582;2024-03-02T03:44:52;5.30;99.90
2869;DHT22;1442;47.448;8.582;2024-03-02T03:47:18;5.30;99.90
2869;DHT22;1442;47.448;8.582;2024-03-02T03:49:47;5.20;99.90
2869;DHT22;1442;47.448;8.582;2024-03-02T03:52:13;5.20;99.90
2869;DHT22;1442;47.448;8.582;2024-03-02T03:54:40;5.20;99.90
2869;DHT22;1442;47.448;8.582;2024-03-02T03:57:08;5.20;99.90
2869;DHT22;1442;47.448;8.582;2024-03-02T03:59:35;5.20;99.90
2869;DHT22;1442;47.448;8.582;2024-03-02T04:02:02;5.20;99.90
2869;DHT22;1442;47.448;8.582;2024-03-02T04:04:29;5.20;99.90
2869;DHT22;1442;47.448;8.582;2024-03-02T04:06:58;5.20;99.90
2869;DHT22;1442;47.448;8.582;2024-03-02T04:09:24;5.20;99.90
2869;DHT22;1442;47.448;8.582;2024-03-02T04:11:51;5.10;99.90
2869;DHT22;1442;47.448;8.582;2024-03-02T04:14:18;5.10;99.90
2869;DHT22;1442;47.448;8.582;2024-03-02T04:16:45;5.10;99.90
2869;DHT22;1442;47.448;8.582;2024-03-02T04:19:12;5.10;99.90
2869;DHT22;1442;47.448;8.582;2024-03-02T04:21:38;5.10;99.90
2869;DHT22;1442;47.448;8.582;2024-03-02T04:24:06;5.10;99.90
2869;DHT22;1442;47.448;8.582;2024-03-02T04:26:33;5.10;99.90
2869;DHT22;1442;47.448;8.582;2024-03-02T04:29:00;5.10;99.90
2869;DHT22;1442;47.448;8.582;2024-03-02T04:31:27;5.10;99.90
2869;DHT22;1442;47.448;8.582;2024-03-02T04:33:54;5.10;99.90
2869;DHT22;1442;47.448;8.582;2024-03-02T04:36:20;5.00;99.90
2869;DHT22;1442;47.448;8.582;2024-03-02T04:38:48;5.00;99.90
2869;DHT22;1442;47.448;8.582;2024-03-02T04:41:16;5.00;99.90
2869;DHT22;1442;47.448;8.582;2024-03-02T04:43:42;4.90;99.90
2869;DHT22;1442;47.448;8.582;2024-03-02T04:46:09;4.90;99.90
2869;DHT22;1442;47.448;8.582;2024-03-02T04:48:36;4.90;99.90
2869;DHT22;1442;47.448;8.582;2024-03-02T04:51:03;4.90;99.90
2869;DHT22;1442;47.448;8.582;2024-03-02T04:53:30;4.80;99.90
2869;DHT22;1442;47.448;8.582;2024-03-02T04:55:57;4.80;99.90
2869;DHT22;1442;47.448;8.582;2024-03-02T04:58:44;4.70;99.90
2869;DHT22;1442;47.448;8.582;2024-03-02T05:01:11;4.70;99.90
2869;DHT22;1442;47.448;8.582;2024-03-02T05:03:38;4.70;99.90
2869;DHT22;1442;47.448;8.582;2024-03-02T05:06:05;4.70;99.90
2869;DHT22;1442;47.448;8.582;2024-03-02T05:08:31;4.70;99.90
2869;DHT22;1442;47.448;8.582;2024-03-02T05:10:58;4.60;99.90
2869;DHT22;1442;47.448;8.582;2024-03-02T05:13:46;4.70;99.90
2869;DHT22;1442;47.448;8.582;2024-03-02T05:16:12;4.70;99.90
2869;DHT22;1442;47.448;8.582;2024-03-02T05:18:39;4.70;99.90
2869;DHT22;1442;47.448;8.582;2024-03-02T05:21:06;4.60;99.90
2869;DHT22;1442;47.448;8.582;2024-03-02T05:23:33;4.60;99.90
2869;DHT22;1442;47.448;8.582;2024-03-02T05:25:59;4.60;99.90
2869;DHT22;1442;47.448;8.582;2024-03-02T05:28:26;4.60;99.90
2869;DHT22;1442;47.448;8.582;2024-03-02T05:30:54;4.50;99.90
2869;DHT22;1442;47.448;8.582;2024-03-02T05:33:21;4.50;99.90
2869;DHT22;1442;47.448;8.582;2024-03-02T05:35:48;4.60;99.90
2869;DHT22;1442;47.448;8.582;2024-03-02T05:38:16;4.50;99.90
2869;DHT22;1442;47.448;8.582;2024-03-02T05:40:43;4.60;99.90
2869;DHT22;1442;47.448;8.582;2024-03-02T05:43:09;4.60;99.90
2869;DHT22;1442;47.448;8.582;2024-03-02T05:45:37;4.60;99.90
2869;DHT22;1442;47.448;8.582;2024-03-02T05:48:07;4.60;99.90
2869;DHT22;1442;47.448;8.582;2024-03-02T05:50:34;4.60;99.90
2869;DHT22;1442;47.448;8.582;2024-03-02T05:53:01;4.60;99.90
2869;DHT22;1442;47.448;8.582;2024-03-02T05:55:28;4.60;99.90
2869;DHT22;1442;47.448;8.582;2024-03-02T05:57:54;4.60;99.90
2869;DHT22;1442;47.448;8.582;2024-03-02T06:00:37;4.60;99.90
2869;DHT22;1442;47.448;8.582;2024-03-02T06:03:05;4.60;99.90
2869;DHT22;1442;47.448;8.582;2024-03-02T06:05:33;4.60;99.90
2869;DHT22;1442;47.448;8.582;2024-03-02T06:08:00;4.60;99.90
2869;DHT22;1442;47.448;8.582;2024-03-02T06:10:26;4.60;99.90
2869;DHT22;1442;47.448;8.582;2024-03-02T06:12:53;4.60;99.90
2869;DHT22;1442;47.448;8.582;2024-03-02T06:15:20;4.60;99.90
2869;DHT22;1442;47.448;8.582;2024-03-02T06:17:47;4.60;99.90
2869;DHT22;1442;47.448;8.582;2024-03-02T06:20:15;4.60;99.90
2869;DHT22;1442;47.448;8.582;2024-03-02T06:22:41;4.60;99.90
2869;DHT22;1442;47.448;8.582;2024-03-02T06:25:08;4.60;99.90
2869;DHT22;1442;47.448;8.582;2024-03-02T06:27:35;4.60;99.90
2869;DHT22;1442;47.448;8.582;2024-03-02T06:30:02;4.70;99.90
2869;DHT22;1442;47.448;8.582;2024-03-02T06:32:29;4.70;99.90
2869;DHT22;1442;47.448;8.582;2024-03-02T06:34:56;4.70;99.90
2869;DHT22;1442;47.448;8.582;2024-03-02T06:37:24;4.70;99.90
2869;DHT22;1442;47.448;8.582;2024-03-02T06:39:51;4.70;99.90
2869;DHT22;1442;47.448;8.582;2024-03-02T06:42:18;4.70;99.90
2869;DHT22;1442;47.448;8.582;2024-03-02T06:44:45;4.70;99.90
2869;DHT22;1442;47.448;8.582;2024-03-02T06:47:11;4.60;99.90
2869;DHT22;1442;47.448;8.582;2024-03-02T06:49:38;4.60;99.90
2869;DHT22;1442;47.448;8.582;2024-03-02T06:52:05;4.60;99.90
2869;DHT22;1442;47.448;8.582;2024-03-02T06:54:33;4.60;99.90
2869;DHT22;1442;47.448;8.582;2024-03-02T06:57:01;4.60;99.90
2869;DHT22;1442;47.448;8.582;2024-03-02T06:59:27;4.60;99.90
2869;DHT22;1442;47.448;8.582;2024-03-02T07:01:54;4.70;99.90
2869;DHT22;1442;47.448;8.582;2024-03-02T07:04:22;4.70;99.90
2869;DHT22;1442;47.448;8.582;2024-03-02T07:06:49;4.70;99.90
2869;DHT22;1442;47.448;8.582;2024-03-02T07:09:16;4.70;99.90
2869;DHT22;1442;47.448;8.582;2024-03-02T07:11:44;4.70;99.90
2869;DHT22;1442;47.448;8.582;2024-03-02T07:14:12;4.70;99.90
2869;DHT22;1442;47.448;8.582;2024-03-02T07:16:39;4.70;99.90
2869;DHT22;1442;47.448;8.582;2024-03-02T07:19:06;4.70;99.90
2869;DHT22;1442;47.448;8.582;2024-03-02T07:21:33;4.70;99.90
2869;DHT22;1442;47.448;8.582;2024-03-02T07:23:59;4.70;99.90
2869;DHT22;1442;47.448;8.582;2024-03-02T07:26:28;4.80;99.90
2869;DHT22;1442;47.448;8.582;2024-03-02T07:28:57;4.80;99.90
2869;DHT22;1442;47.448;8.582;2024-03-02T07:31:24;4.80;99.90
2869;DHT22;1442;47.448;8.582;2024-03-02T07:33:50;4.90;99.90
2869;DHT22;1442;47.448;8.582;2024-03-02T07:36:17;4.90;99.90
2869;DHT22;1442;47.448;8.582;2024-03-02T07:38:44;5.00;99.90
2869;DHT22;1442;47.448;8.582;2024-03-02T07:41:12;5.10;99.90
2869;DHT22;1442;47.448;8.582;2024-03-02T07:43:39;5.20;99.90
2869;DHT22;1442;47.448;8.582;2024-03-02T07:46:07;5.10;99.90
2869;DHT22;1442;47.448;8.582;2024-03-02T07:48:33;5.20;99.90
2869;DHT22;1442;47.448;8.582;2024-03-02T07:51:00;5.30;99.90
2869;DHT22;1442;47.448;8.582;2024-03-02T07:53:28;5.30;99.90
2869;DHT22;1442;47.448;8.582;2024-03-02T07:55:54;5.30;99.90
2869;DHT22;1442;47.448;8.582;2024-03-02T07:58:22;5.30;99.90
2869;DHT22;1442;47.448;8.582;2024-03-02T08:00:49;5.40;99.90
2869;DHT22;1442;47.448;8.582;2024-03-02T08:03:17;5.40;99.90
2869;DHT22;1442;47.448;8.582;2024-03-02T08:05:44;5.40;99.90
2869;DHT22;1442;47.448;8.582;2024-03-02T08:08:11;5.40;99.90
2869;DHT22;1442;47.448;8.582;2024-03-02T08:10:38;5.40;99.90
2869;DHT22;1442;47.448;8.582;2024-03-02T08:13:05;5.30;99.90
2869;DHT22;1442;47.448;8.582;2024-03-02T08:15:31;5.30;99.90
2869;DHT22;1442;47.448;8.582;2024-03-02T08:17:58;5.40;99.90
2869;DHT22;1442;47.448;8.582;2024-03-02T08:20:27;5.40;99.90
2869;DHT22;1442;47.448;8.582;2024-03-02T08:22:54;5.40;99.90
2869;DHT22;1442;47.448;8.582;2024-03-02T08:25:20;5.40;99.90
2869;DHT22;1442;47.448;8.582;2024-03-02T08:27:47;5.50;99.90
2869;DHT22;1442;47.448;8.582;2024-03-02T08:30:14;5.50;99.90
2869;DHT22;1442;47.448;8.582;2024-03-02T08:32:41;5.50;99.90
2869;DHT22;1442;47.448;8.582;2024-03-02T08:35:08;5.50;99.90
2869;DHT22;1442;47.448;8.582;2024-03-02T08:37:38;5.60;99.90
2869;DHT22;1442;47.448;8.582;2024-03-02T08:40:07;5.80;99.90
2869;DHT22;1442;47.448;8.582;2024-03-02T08:42:34;5.70;99.90
2869;DHT22;1442;47.448;8.582;2024-03-02T08:45:01;5.80;99.90
2869;DHT22;1442;47.448;8.582;2024-03-02T08:47:27;5.90;99.90
2869;DHT22;1442;47.448;8.582;2024-03-02T08:49:54;5.90;99.90
2869;DHT22;1442;47.448;8.582;2024-03-02T08:52:21;5.90;99.90
2869;DHT22;1442;47.448;8.582;2024-03-02T08:54:49;6.00;99.90
2869;DHT22;1442;47.448;8.582;2024-03-02T08:57:16;6.00;99.90
2869;DHT22;1442;47.448;8.582;2024-03-02T08:59:43;6.00;99.90
2869;DHT22;1442;47.448;8.582;2024-03-02T09:02:09;6.10;99.90
2869;DHT22;1442;47.448;8.582;2024-03-02T09:04:36;6.20;99.90
2869;DHT22;1442;47.448;8.582;2024-03-02T09:07:03;6.30;99.90
2869;DHT22;1442;47.448;8.582;2024-03-02T09:09:30;6.30;99.90
2869;DHT22;1442;47.448;8.582;2024-03-02T09:11:59;6.30;99.90
2869;DHT22;1442;47.448;8.582;2024-03-02T09:14:26;6.40;99.90
2869;DHT22;1442;47.448;8.582;2024-03-02T09:16:53;6.50;99.90
2869;DHT22;1442;47.448;8.582;2024-03-02T09:19:19;6.50;99.90
2869;DHT22;1442;47.448;8.582;2024-03-02T09:21:46;6.60;99.90
2869;DHT22;1442;47.448;8.582;2024-03-02T09:24:13;6.70;99.90
2869;DHT22;1442;47.448;8.582;2024-03-02T09:26:40;6.70;99.90
2869;DHT22;1442;47.448;8.582;2024-03-02T09:29:08;6.80;99.90
2869;DHT22;1442;47.448;8.582;2024-03-02T09:31:39;6.80;99.90
2869;DHT22;1442;47.448;8.582;2024-03-02T09:34:06;6.90;99.90
2869;DHT22;1442;47.448;8.582;2024-03-02T09:36:33;6.90;99.90
2869;DHT22;1442;47.448;8.582;2024-03-02T09:38:59;6.80;99.90
2869;DHT22;1442;47.448;8.582;2024-03-02T09:41:26;6.80;99.90
2869;DHT22;1442;47.448;8.582;2024-03-02T09:43:54;6.80;99.90
2869;DHT22;1442;47.448;8.582;2024-03-02T09:46:23;6.90;99.90
2869;DHT22;1442;47.448;8.582;2024-03-02T09:48:49;6.80;99.90
2869;DHT22;1442;47.448;8.582;2024-03-02T09:51:16;6.80;99.90
2869;DHT22;1442;47.448;8.582;2024-03-02T09:53:45;6.80;99.90
2869;DHT22;1442;47.448;8.582;2024-03-02T09:56:13;6.80;99.90
2869;DHT22;1442;47.448;8.582;2024-03-02T09:58:41;6.90;99.90
2869;DHT22;1442;47.448;8.582;2024-03-02T10:01:09;6.90;99.90
2869;DHT22;1442;47.448;8.582;2024-03-02T10:03:38;7.00;99.90
2869;DHT22;1442;47.448;8.582;2024-03-02T10:06:21;7.10;99.90
2869;DHT22;1442;47.448;8.582;2024-03-02T10:08:48;7.10;99.90
2869;DHT22;1442;47.448;8.582;2024-03-02T10:11:26;7.30;99.90
2869;DHT22;1442;47.448;8.582;2024-03-02T10:14:04;7.40;99.90
2869;DHT22;1442;47.448;8.582;2024-03-02T10:16:34;7.40;99.90
2869;DHT22;1442;47.448;8.582;2024-03-02T10:19:17;7.50;99.90
2869;DHT22;1442;47.448;8.582;2024-03-02T10:21:45;7.50;99.90
2869;DHT22;1442;47.448;8.582;2024-03-02T10:24:12;7.50;99.90
2869;DHT22;1442;47.448;8.582;2024-03-02T10:26:39;7.50;99.90
2869;DHT22;1442;47.448;8.582;2024-03-02T10:29:07;7.60;99.90
2869;DHT22;1442;47.448;8.582;2024-03-02T10:31:36;7.60;99.90
2869;DHT22;1442;47.448;8.582;2024-03-02T10:34:03;7.70;99.90
2869;DHT22;1442;47.448;8.582;2024-03-02T10:36:32;7.70;99.90
2869;DHT22;1442;47.448;8.582;2024-03-02T10:38:58;7.80;99.90
2869;DHT22;1442;47.448;8.582;2024-03-02T10:41:26;7.90;99.90
2869;DHT22;1442;47.448;8.582;2024-03-02T10:43:53;8.00;99.90
2869;DHT22;1442;47.448;8.582;2024-03-02T10:46:27;8.00;99.90
2869;DHT22;1442;47.448;8.582;2024-03-02T10:48:54;8.10;99.90
2869;DHT22;1442;47.448;8.582;2024-03-02T10:51:21;8.10;99.90
2869;DHT22;1442;47.448;8.582;2024-03-02T10:53:49;8.20;99.90
2869;DHT22;1442;47.448;8.582;2024-03-02T10:56:22;8.20;99.90
2869;DHT22;1442;47.448;8.582;2024-03-02T10:58:59;8.30;99.90
2869;DHT22;1442;47.448;8.582;2024-03-02T11:01:29;8.30;99.90
2869;DHT22;1442;47.448;8.582;2024-03-02T11:03:57;8.30;99.90
2869;DHT22;1442;47.448;8.582;2024-03-02T11:06:26;8.30;99.90
2869;DHT22;1442;47.448;8.582;2024-03-02T11:08:57;8.40;99.90
2869;DHT22;1442;47.448;8.582;2024-03-02T11:11:29;8.50;99.90
2869;DHT22;1442;47.448;8.582;2024-03-02T11:13:57;8.50;99.90
2869;DHT22;1442;47.448;8.582;2024-03-02T11:16:34;8.60;99.90
2869;DHT22;1442;47.448;8.582;2024-03-02T11:19:02;8.70;99.90
2869;DHT22;1442;47.448;8.582;2024-03-02T11:21:29;8.80;99.90
2869;DHT22;1442;47.448;8.582;2024-03-02T11:24:00;8.90;99.90
2869;DHT22;1442;47.448;8.582;2024-03-02T11:26:47;8.90;99.90
2869;DHT22;1442;47.448;8.582;2024-03-02T11:29:43;9.00;99.90
2869;DHT22;1442;47.448;8.582;2024-03-02T11:32:14;9.10;99.90
2869;DHT22;1442;47.448;8.582;2024-03-02T11:34:42;9.10;99.90
2869;DHT22;1442;47.448;8.582;2024-03-02T11:37:11;9.10;99.90
2869;DHT22;1442;47.448;8.582;2024-03-02T11:39:39;9.20;99.90
2869;DHT22;1442;47.448;8.582;2024-03-02T11:42:06;9.20;99.90
2869;DHT22;1442;47.448;8.582;2024-03-02T11:44:35;9.30;99.90
2869;DHT22;1442;47.448;8.582;2024-03-02T11:47:05;9.40;99.90
2869;DHT22;1442;47.448;8.582;2024-03-02T11:49:39;9.50;99.90
2869;DHT22;1442;47.448;8.582;2024-03-02T11:52:07;9.50;99.90
2869;DHT22;1442;47.448;8.582;2024-03-02T11:54:35;9.60;99.90
2869;DHT22;1442;47.448;8.582;2024-03-02T11:57:06;9.60;99.90
2869;DHT22;1442;47.448;8.582;2024-03-02T11:59:34;9.70;99.90
2869;DHT22;1442;47.448;8.582;2024-03-02T12:02:01;9.80;99.90
2869;DHT22;1442;47.448;8.582;2024-03-02T12:04:29;9.90;99.90
2869;DHT22;1442;47.448;8.582;2024-03-02T12:06:56;9.90;99.90
2869;DHT22;1442;47.448;8.582;2024-03-02T12:09:25;10.00;99.90
2869;DHT22;1442;47.448;8.582;2024-03-02T12:12:02;10.00;99.90
2869;DHT22;1442;47.448;8.582;2024-03-02T12:14:31;10.10;99.90
2869;DHT22;1442;47.448;8.582;2024-03-02T12:16:58;10.10;99.90
2869;DHT22;1442;47.448;8.582;2024-03-02T12:19:25;10.20;99.90
2869;DHT22;1442;47.448;8.582;2024-03-02T12:21:52;10.20;99.90
2869;DHT22;1442;47.448;8.582;2024-03-02T12:24:20;10.40;99.90
2869;DHT22;1442;47.448;8.582;2024-03-02T12:26:47;10.30;99.90
2869;DHT22;1442;47.448;8.582;2024-03-02T12:29:15;10.30;99.90
2869;DHT22;1442;47.448;8.582;2024-03-02T12:31:43;10.40;99.90
2869;DHT22;1442;47.448;8.582;2024-03-02T12:34:12;10.40;99.90
2869;DHT22;1442;47.448;8.582;2024-03-02T12:36:40;10.40;99.90
2869;DHT22;1442;47.448;8.582;2024-03-02T12:39:07;10.40;99.90
2869;DHT22;1442;47.448;8.582;2024-03-02T12:41:36;10.50;99.90
2869;DHT22;1442;47.448;8.582;2024-03-02T12:44:04;10.60;99.90
2869;DHT22;1442;47.448;8.582;2024-03-02T12:46:31;10.70;99.90
2869;DHT22;1442;47.448;8.582;2024-03-02T12:49:04;10.80;99.90
2869;DHT22;1442;47.448;8.582;2024-03-02T12:51:31;10.80;99.90
2869;DHT22;1442;47.448;8.582;2024-03-02T12:53:58;10.90;99.90
2869;DHT22;1442;47.448;8.582;2024-03-02T12:56:25;11.00;99.90
2869;DHT22;1442;47.448;8.582;2024-03-02T12:58:53;11.00;99.90
2869;DHT22;1442;47.448;8.582;2024-03-02T13:01:20;11.10;99.90
2869;DHT22;1442;47.448;8.582;2024-03-02T13:03:49;11.10;99.90
2869;DHT22;1442;47.448;8.582;2024-03-02T13:06:18;11.20;99.90
2869;DHT22;1442;47.448;8.582;2024-03-02T13:08:45;11.20;99.90
2869;DHT22;1442;47.448;8.582;2024-03-02T13:11:13;11.20;99.90
2869;DHT22;1442;47.448;8.582;2024-03-02T13:13:40;11.30;99.90
2869;DHT22;1442;47.448;8.582;2024-03-02T13:16:08;11.30;99.90
2869;DHT22;1442;47.448;8.582;2024-03-02T13:18:36;11.30;99.90
2869;DHT22;1442;47.448;8.582;2024-03-02T13:21:03;11.30;99.90
2869;DHT22;1442;47.448;8.582;2024-03-02T13:23:31;11.30;99.90
2869;DHT22;1442;47.448;8.582;2024-03-02T13:25:58;11.30;99.90
2869;DHT22;1442;47.448;8.582;2024-03-02T13:28:25;11.40;99.90
2869;DHT22;1442;47.448;8.582;2024-03-02T13:30:52;11.40;99.90
2869;DHT22;1442;47.448;8.582;2024-03-02T13:33:19;11.40;99.90
2869;DHT22;1442;47.448;8.582;2024-03-02T13:35:48;11.40;99.90
2869;DHT22;1442;47.448;8.582;2024-03-02T13:38:15;11.50;99.90
2869;DHT22;1442;47.448;8.582;2024-03-02T13:40:43;11.60;99.90
2869;DHT22;1442;47.448;8.582;2024-03-02T13:43:10;11.60;99.90
2869;DHT22;1442;47.448;8.582;2024-03-02T13:45:37;11.60;99.90
2869;DHT22;1442;47.448;8.582;2024-03-02T13:48:04;11.60;99.90
2869;DHT22;1442;47.448;8.582;2024-03-02T13:50:32;11.60;99.90
2869;DHT22;1442;47.448;8.582;2024-03-02T13:52:59;11.60;99.90
2869;DHT22;1442;47.448;8.582;2024-03-02T13:55:25;11.60;99.90
2869;DHT22;1442;47.448;8.582;2024-03-02T13:57:53;11.60;99.90
2869;DHT22;1442;47.448;8.582;2024-03-02T14:00:20;11.70;99.90
2869;DHT22;1442;47.448;8.582;2024-03-02T14:02:47;11.60;99.90
2869;DHT22;1442;47.448;8.582;2024-03-02T14:05:15;11.70;99.90
2869;DHT22;1442;47.448;8.582;2024-03-02T14:07:42;11.70;99.90
2869;DHT22;1442;47.448;8.582;2024-03-02T14:10:09;11.80;99.90
2869;DHT22;1442;47.448;8.582;2024-03-02T14:12:36;11.70;99.90
2869;DHT22;1442;47.448;8.582;2024-03-02T14:15:06;11.70;99.90
2869;DHT22;1442;47.448;8.582;2024-03-02T14:17:34;11.80;99.90
2869;DHT22;1442;47.448;8.582;2024-03-02T14:20:00;11.90;99.90
2869;DHT22;1442;47.448;8.582;2024-03-02T14:22:27;11.90;99.90
2869;DHT22;1442;47.448;8.582;2024-03-02T14:24:54;11.90;99.90
2869;DHT22;1442;47.448;8.582;2024-03-02T14:27:21;11.90;99.90
2869;DHT22;1442;47.448;8.582;2024-03-02T14:29:47;12.00;99.90
2869;DHT22;1442;47.448;8.582;2024-03-02T14:32:15;12.00;99.90
2869;DHT22;1442;47.448;8.582;2024-03-02T14:34:42;12.10;99.90
2869;DHT22;1442;47.448;8.582;2024-03-02T14:37:12;12.10;99.90
2869;DHT22;1442;47.448;8.582;2024-03-02T14:39:39;12.10;99.90
2869;DHT22;1442;47.448;8.582;2024-03-02T14:42:06;12.10;99.90
2869;DHT22;1442;47.448;8.582;2024-03-02T14:44:33;12.20;99.90
2869;DHT22;1442;47.448;8.582;2024-03-02T14:47:01;12.20;99.90
2869;DHT22;1442;47.448;8.582;2024-03-02T14:49:30;12.20;99.90
2869;DHT22;1442;47.448;8.582;2024-03-02T14:51:59;12.20;99.90
2869;DHT22;1442;47.448;8.582;2024-03-02T14:54:26;12.20;99.90
2869;DHT22;1442;47.448;8.582;2024-03-02T14:56:52;12.20;99.90
2869;DHT22;1442;47.448;8.582;2024-03-02T14:59:19;12.20;99.90
2869;DHT22;1442;47.448;8.582;2024-03-02T15:01:46;12.10;99.90
2869;DHT22;1442;47.448;8.582;2024-03-02T15:04:14;12.10;99.90
2869;DHT22;1442;47.448;8.582;2024-03-02T15:06:43;12.10;99.90
2869;DHT22;1442;47.448;8.582;2024-03-02T15:09:10;12.10;99.90
2869;DHT22;1442;47.448;8.582;2024-03-02T15:11:37;12.10;99.90
2869;DHT22;1442;47.448;8.582;2024-03-02T15:14:04;12.10;99.90
2869;DHT22;1442;47.448;8.582;2024-03-02T15:16:31;12.10;99.90
2869;DHT22;1442;47.448;8.582;2024-03-02T15:18:58;12.00;99.90
2869;DHT22;1442;47.448;8.582;2024-03-02T15:21:25;12.10;99.90
2869;DHT22;1442;47.448;8.582;2024-03-02T15:23:53;12.10;99.90
2869;DHT22;1442;47.448;8.582;2024-03-02T15:26:20;12.10;99.90
2869;DHT22;1442;47.448;8.582;2024-03-02T15:28:47;12.10;99.90
2869;DHT22;1442;47.448;8.582;2024-03-02T15:31:13;12.10;99.90
2869;DHT22;1442;47.448;8.582;2024-03-02T15:33:40;12.10;99.90
2869;DHT22;1442;47.448;8.582;2024-03-02T15:36:07;12.10;99.90
2869;DHT22;1442;47.448;8.582;2024-03-02T15:38:34;12.10;99.90
2869;DHT22;1442;47.448;8.582;2024-03-02T15:41:04;12.10;99.90
2869;DHT22;1442;47.448;8.582;2024-03-02T15:43:30;12.10;99.90
2869;DHT22;1442;47.448;8.582;2024-03-02T15:45:58;12.10;99.90
2869;DHT22;1442;47.448;8.582;2024-03-02T15:48:25;12.10;99.90
2869;DHT22;1442;47.448;8.582;2024-03-02T15:50:51;12.00;99.90
2869;DHT22;1442;47.448;8.582;2024-03-02T15:53:18;12.00;99.90
2869;DHT22;1442;47.448;8.582;2024-03-02T15:55:45;12.10;99.90
2869;DHT22;1442;47.448;8.582;2024-03-02T15:58:13;12.10;99.90
2869;DHT22;1442;47.448;8.582;2024-03-02T16:00:40;12.10;99.90
2869;DHT22;1442;47.448;8.582;2024-03-02T16:03:07;12.10;99.90
2869;DHT22;1442;47.448;8.582;2024-03-02T16:05:34;12.00;99.90
2869;DHT22;1442;47.448;8.582;2024-03-02T16:08:00;12.00;99.90
2869;DHT22;1442;47.448;8.582;2024-03-02T16:10:27;12.00;99.90
2869;DHT22;1442;47.448;8.582;2024-03-02T16:12:54;12.00;99.90
2869;DHT22;1442;47.448;8.582;2024-03-02T16:15:26;12.00;99.90
2869;DHT22;1442;47.448;8.582;2024-03-02T16:17:53;12.10;99.90